Time;durP1;ratioP1;P1;durP2;ratioP2;P2;SDS_P1;SDS_P2;PMS_P1;PMS_P2;Temp;Humidity;BMP_temperature;BMP_pressure;BME280_temperature;BME280_humidity;BME280_pressure;Samples;Min_cycle;Max_cycle;Signal;HPM_P1;HPM_P2
2022/07/11 00:01:03;;;;;;;0.65;0.65;;;;;;;14.16;100.00;101559.81;4913612;28;20055;-87
2022/07/11 00:03:33;;;;;;;3.35;0.75;;;;;;;14.15;100.00;101565.97;4928585;28;20062;-86
2022/07/11 00:05:59;;;;;;;1.17;1.00;;;;;;;14.13;100.00;101573.03;4911259;28;20055;-85
2022/07/11 00:08:26;;;;;;;3.08;1.08;;;;;;;14.09;100.00;101559.91;4933958;28;20117;-83
2022/07/11 00:10:53;;;;;;;1.00;0.82;;;;;;;14.07;100.00;101562.56;4913351;28;20071;-83
2022/07/11 00:13:20;;;;;;;1.13;1.02;;;;;;;14.04;100.00;101563.44;4917207;28;20141;-86
2022/07/11 00:15:47;;;;;;;2.95;1.00;;;;;;;14.03;100.00;101556.44;4933043;28;20478;-84
2022/07/11 00:18:13;;;;;;;2.40;1.00;;;;;;;14.02;100.00;101561.72;4915590;28;20507;-85
2022/07/11 00:20:40;;;;;;;1.20;1.10;;;;;;;13.98;100.00;101560.00;4932536;28;20055;-84
2022/07/11 00:23:09;;;;;;;1.08;1.08;;;;;;;13.97;100.00;101563.50;4915465;28;20138;-85
2022/07/11 00:25:38;;;;;;;3.13;1.27;;;;;;;13.92;100.00;101558.28;4931726;28;20142;-86
2022/07/11 00:28:05;;;;;;;1.50;0.88;;;;;;;13.92;100.00;101555.63;4919539;28;20055;-84
2022/07/11 00:30:32;;;;;;;2.03;0.90;;;;;;;13.89;100.00;101553.06;4936366;28;20204;-85
2022/07/11 00:32:58;;;;;;;1.40;1.30;;;;;;;13.85;100.00;101552.19;4935230;28;20047;-84
2022/07/11 00:35:28;;;;;;;1.00;1.00;;;;;;;13.81;100.00;101553.09;4929866;28;20063;-87
2022/07/11 00:37:55;;;;;;;1.33;0.95;;;;;;;13.78;100.00;101560.16;4915945;28;21105;-88
2022/07/11 00:40:22;;;;;;;0.93;0.93;;;;;;;13.78;100.00;101550.50;4931764;28;20051;-86
2022/07/11 00:42:51;;;;;;;2.08;0.85;;;;;;;13.79;100.00;101546.97;4934174;28;20040;-85
2022/07/11 00:45:19;;;;;;;2.60;1.02;;;;;;;13.79;100.00;101554.00;4921521;28;20406;-84
2022/07/11 00:47:49;;;;;;;1.15;0.93;;;;;;;13.79;100.00;101549.59;4932950;28;20049;-84
2022/07/11 00:50:34;;;;;;;0.80;0.80;;;;;;;13.81;100.00;101544.34;4920160;28;20051;-84
2022/07/11 00:53:01;;;;;;;1.65;1.55;;;;;;;13.81;100.00;101547.84;4930455;28;20059;-85
2022/07/11 00:55:32;;;;;;;0.85;0.82;;;;;;;13.81;100.00;101544.34;4918975;28;20062;-85
2022/07/11 00:57:58;;;;;;;1.33;0.80;;;;;;;13.82;100.00;101543.44;4928639;28;20181;-86
2022/07/11 01:00:28;;;;;;;0.95;0.90;;;;;;;13.84;100.00;101541.69;4933624;28;20054;-87
2022/07/11 01:02:54;;;;;;;3.08;1.30;;;;;;;13.85;100.00;101546.06;4931430;28;20091;-85
2022/07/11 01:05:22;;;;;;;1.00;0.82;;;;;;;13.84;100.00;101545.19;4918015;28;20047;-86
2022/07/11 01:07:52;;;;;;;1.80;1.00;;;;;;;13.85;100.00;101539.03;4932682;28;20046;-87
2022/07/11 01:10:18;;;;;;;3.50;1.38;;;;;;;13.83;100.00;101543.44;4934984;28;20055;-88
2022/07/11 01:12:45;;;;;;;1.40;1.15;;;;;;;13.82;100.00;101546.06;4940986;28;20047;-85
2022/07/11 01:15:16;;;;;;;0.80;0.80;;;;;;;13.80;100.00;101537.34;4940893;28;20098;-86
2022/07/11 01:17:43;;;;;;;1.48;1.23;;;;;;;13.80;100.00;101539.97;4938512;28;20110;-86
2022/07/11 01:20:11;;;;;;;1.33;1.23;;;;;;;13.79;100.00;101530.31;4926162;28;20477;-86
2022/07/11 01:22:49;;;;;;;1.80;1.13;;;;;;;13.78;100.00;101532.09;4958035;28;20404;-85
2022/07/11 01:25:30;;;;;;;3.38;1.40;;;;;;;13.76;100.00;101531.22;4919552;28;20351;-85
2022/07/11 01:28:02;;;;;;;0.90;0.90;;;;;;;13.76;100.00;101528.59;4931604;28;20390;-84
2022/07/11 01:30:32;;;;;;;1.35;1.33;;;;;;;13.76;100.00;101525.94;4947545;28;21066;-85
2022/07/11 01:32:59;;;;;;;1.85;1.10;;;;;;;13.75;100.00;101516.31;4919905;28;20102;-85
2022/07/11 01:35:29;;;;;;;0.90;0.90;;;;;;;13.73;100.00;101526.84;4934322;28;20422;-85
2022/07/11 01:37:56;;;;;;;2.25;1.67;;;;;;;13.73;100.00;101528.63;4940471;28;20075;-84
2022/07/11 01:40:23;;;;;;;3.50;1.67;;;;;;;13.72;100.00;101526.88;4911747;28;20051;-85
2022/07/11 01:42:49;;;;;;;2.70;1.25;;;;;;;13.72;100.00;101525.09;4914348;28;20040;-84
2022/07/11 01:45:16;;;;;;;1.33;1.23;;;;;;;13.71;100.00;101523.38;4933229;28;20051;-83
2022/07/11 01:47:43;;;;;;;3.90;1.70;;;;;;;13.69;100.00;101517.25;4916491;28;20232;-85
2022/07/11 01:50:10;;;;;;;1.98;1.52;;;;;;;13.67;100.00;101519.00;4908902;28;20101;-86
2022/07/11 01:52:36;;;;;;;4.25;1.30;;;;;;;13.66;100.00;101524.28;4916463;28;20047;-85
2022/07/11 01:55:03;;;;;;;2.40;1.80;;;;;;;13.66;100.00;101524.28;4931937;28;20053;-86
2022/07/11 01:57:35;;;;;;;1.17;1.05;;;;;;;13.64;100.00;101521.66;4928300;28;20052;-84
2022/07/11 02:00:04;;;;;;;3.92;1.52;;;;;;;13.64;100.00;101523.44;4932109;28;20102;-86
2022/07/11 02:02:32;;;;;;;1.60;1.50;;;;;;;13.63;100.00;101519.91;4917300;28;20572;-86
2022/07/11 02:04:59;;;;;;;1.83;1.50;;;;;;;13.62;100.00;101520.78;4929023;28;20133;-85
2022/07/11 02:10:06;;;;;;;2.85;1.70;;;;;;;13.45;100.00;101523.53;4915335;28;20043;-85
2022/07/11 02:12:33;;;;;;;2.63;1.77;;;;;;;13.36;100.00;101516.63;4929896;28;20086;-85
2022/07/11 02:15:00;;;;;;;4.93;1.90;;;;;;;13.34;100.00;101520.09;4935989;28;20055;-86
2022/07/11 02:17:32;;;;;;;2.03;1.75;;;;;;;13.35;100.00;101519.19;4922899;28;20394;-87
2022/07/11 02:19:59;;;;;;;3.45;1.80;;;;;;;13.38;100.00;101520.09;4909674;28;20493;-85
2022/07/11 02:22:26;;;;;;;2.13;1.70;;;;;;;13.46;100.00;101516.56;4949623;28;20640;-84
2022/07/11 02:24:57;;;;;;;1.70;1.60;;;;;;;13.50;100.00;101513.00;4931830;28;20039;-84
2022/07/11 02:27:24;;;;;;;6.00;2.15;;;;;;;13.53;100.00;101515.59;4926792;28;20053;-85
2022/07/11 02:29:51;;;;;;;4.57;1.65;;;;;;;13.54;100.00;101518.22;4937803;28;20054;-84
2022/07/11 02:32:17;;;;;;;1.73;1.60;;;;;;;13.58;100.00;101516.44;4935242;28;20047;-85
2022/07/11 02:34:44;;;;;;;2.40;2.00;;;;;;;13.63;100.00;101512.03;4930378;28;20070;-84
2022/07/11 02:37:13;;;;;;;1.80;1.65;;;;;;;13.68;100.00;101518.13;4924362;28;20078;-87
2022/07/11 02:39:40;;;;;;;2.50;1.80;;;;;;;13.70;100.00;101516.38;4932519;28;20130;-85
2022/07/11 02:42:07;;;;;;;2.95;2.13;;;;;;;13.64;100.00;101521.66;4929383;28;20047;-85
2022/07/11 02:44:34;;;;;;;6.78;2.35;;;;;;;13.57;100.00;101523.47;4937762;28;20047;-84
2022/07/11 02:47:01;;;;;;;4.53;2.25;;;;;;;13.57;100.00;101525.22;4930113;28;20047;-85
2022/07/11 02:49:28;;;;;;;3.53;2.22;;;;;;;13.59;100.00;101519.97;4911371;28;20055;-85
2022/07/11 02:51:54;;;;;;;4.72;2.53;;;;;;;13.63;100.00;101522.53;4910627;28;20454;-84
2022/07/11 02:54:22;;;;;;;2.35;1.98;;;;;;;13.67;100.00;101526.03;4916715;28;20046;-85
2022/07/11 02:56:49;;;;;;;7.53;2.15;;;;;;;13.69;100.00;101526.91;4908517;28;20683;-85
2022/07/11 02:59:19;;;;;;;4.97;2.03;;;;;;;13.71;100.00;101523.38;4933924;28;20055;-84
2022/07/11 03:01:47;;;;;;;2.45;2.25;;;;;;;13.73;100.00;101528.63;4934854;28;20074;-84
2022/07/11 03:04:14;;;;;;;8.27;2.30;;;;;;;13.74;100.00;101519.84;4916294;28;20050;-85
2022/07/11 03:06:44;;;;;;;3.25;2.00;;;;;;;13.75;100.00;101524.19;4928858;28;20047;-85
2022/07/11 03:09:11;;;;;;;2.97;2.35;;;;;;;13.76;100.00;101525.09;4912678;28;20050;-85
2022/07/11 03:11:37;;;;;;;2.80;2.08;;;;;;;13.75;100.00;101525.97;4912929;28;20077;-84
2022/07/11 03:14:07;;;;;;;2.58;1.95;;;;;;;13.77;100.00;101527.72;4911181;28;20335;-85
2022/07/11 03:16:33;;;;;;;7.88;2.90;;;;;;;13.78;100.00;101528.56;4932647;28;20158;-86
2022/07/11 03:19:00;;;;;;;4.20;2.30;;;;;;;13.75;100.00;101528.59;4914512;28;20259;-87
2022/07/11 03:21:30;;;;;;;3.25;2.35;;;;;;;13.74;100.00;101525.13;4948636;28;20841;-86
2022/07/11 03:23:56;;;;;;;9.60;3.15;;;;;;;13.75;100.00;101536.50;4910956;28;20433;-88
2022/07/11 03:26:23;;;;;;;5.68;2.58;;;;;;;13.75;100.00;101528.59;4909788;28;20051;-83
2022/07/11 03:28:50;;;;;;;2.20;2.00;;;;;;;13.76;100.00;101528.59;4936087;28;20053;-84
2022/07/11 03:31:24;;;;;;;5.30;2.20;;;;;;;13.80;100.00;101526.81;4938544;28;20055;-85
2022/07/11 03:33:53;;;;;;;5.45;2.30;;;;;;;13.79;100.00;101520.66;4918345;28;20165;-84
2022/07/11 03:36:22;;;;;;;5.05;2.85;;;;;;;13.81;100.00;101529.44;4932563;28;20110;-84
2022/07/11 03:38:49;;;;;;;4.38;2.65;;;;;;;13.85;100.00;101525.88;4918802;28;20537;-86
2022/07/11 03:41:15;;;;;;;5.03;2.58;;;;;;;13.86;100.00;101530.25;4920777;28;20047;-87
2022/07/11 03:43:45;;;;;;;2.55;2.35;;;;;;;13.86;100.00;101529.41;4950489;28;20067;-87
2022/07/11 03:46:12;;;;;;;2.10;2.00;;;;;;;13.87;100.00;101524.13;4931897;28;20043;-86
2022/07/11 03:48:38;;;;;;;3.95;2.83;;;;;;;13.93;100.00;101525.81;4919818;28;20053;-85
2022/07/11 03:51:08;;;;;;;4.55;2.50;;;;;;;13.98;100.00;101536.31;4933778;28;20136;-84
2022/07/11 03:53:35;;;;;;;4.10;2.90;;;;;;;14.00;100.00;101542.41;4931106;28;20058;-84
2022/07/11 03:56:02;;;;;;;3.15;2.38;;;;;;;14.00;100.00;101531.88;4916161;28;20047;-83
2022/07/11 03:58:28;;;;;;;3.95;2.22;;;;;;;14.02;100.00;101538.88;4918317;28;20059;-87
2022/07/11 04:00:55;;;;;;;7.97;3.30;;;;;;;14.03;100.00;101527.47;4936698;28;20057;-82
2022/07/11 04:03:24;;;;;;;3.70;2.17;;;;;;;14.03;100.00;101527.47;4934495;28;20059;-85
2022/07/11 04:05:51;;;;;;;2.90;2.70;;;;;;;14.07;100.00;101530.97;4914994;28;20515;-86
2022/07/11 04:08:20;;;;;;;5.90;2.80;;;;;;;14.10;100.00;101532.69;4931794;28;20039;-85
2022/07/11 04:10:48;;;;;;;5.68;4.18;;;;;;;14.10;100.00;101527.44;4931215;28;20546;-85
2022/07/11 04:13:20;;;;;;;3.47;2.80;;;;;;;14.11;100.00;101530.03;4929204;28;20601;-84
2022/07/11 04:15:47;;;;;;;6.10;2.70;;;;;;;14.14;100.00;101535.25;4926513;28;20062;-88
2022/07/11 04:18:14;;;;;;;3.58;2.90;;;;;;;14.19;100.00;101527.34;4936124;28;20043;-84
2022/07/11 04:20:41;;;;;;;2.78;2.58;;;;;;;14.24;100.00;101533.41;4931217;28;20458;-86
2022/07/11 04:23:08;;;;;;;5.60;3.83;;;;;;;14.29;100.00;101531.63;4929646;28;20047;-84
2022/07/11 04:25:35;;;;;;;3.53;3.10;;;;;;;14.35;100.00;101533.31;4913399;28;20050;-87
2022/07/11 04:28:02;;;;;;;3.88;2.13;;;;;;;14.38;100.00;101536.78;4931877;28;20055;-88
2022/07/11 04:30:32;;;;;;;3.13;2.25;;;;;;;14.42;100.00;101531.47;4915239;28;20157;-85
2022/07/11 04:33:01;;;;;;;5.93;3.15;;;;;;;14.46;100.00;101533.22;4934081;28;20051;-86
2022/07/11 04:35:37;;;;;;;5.32;3.58;;;;;;;14.49;100.00;101533.16;4915112;28;20043;-87
2022/07/11 04:38:06;;;;;;;7.45;3.35;;;;;;;14.51;100.00;101532.25;4936913;28;20741;-88
2022/07/11 04:40:36;;;;;;;3.50;3.15;;;;;;;14.52;100.00;101528.75;4912579;28;20102;-86
2022/07/11 04:43:09;;;;;;;3.80;3.50;;;;;;;14.54;100.00;101532.22;4936199;28;20043;-85
2022/07/11 04:45:36;;;;;;;3.47;3.20;;;;;;;14.56;100.00;101535.72;4916808;28;20502;-84
2022/07/11 04:48:04;;;;;;;4.68;3.42;;;;;;;14.60;100.00;101527.75;4940528;28;20451;-88
2022/07/11 04:50:33;;;;;;;6.10;3.67;;;;;;;14.56;100.00;101534.81;4926354;28;20047;-83
2022/07/11 04:53:00;;;;;;;5.80;3.55;;;;;;;14.51;100.00;101537.53;4924801;28;20047;-84
2022/07/11 04:55:37;;;;;;;6.60;3.90;;;;;;;14.45;100.00;101540.22;4917348;28;20047;-83
2022/07/11 04:58:06;;;;;;;4.82;3.75;;;;;;;14.42;100.00;101545.53;4934118;28;20059;-84
2022/07/11 05:00:33;;;;;;;4.28;3.60;;;;;;;14.39;100.00;101546.44;4923668;28;20043;-87
2022/07/11 05:03:00;;;;;;;4.60;3.13;;;;;;;14.40;100.00;101549.94;4937924;28;20160;-86
2022/07/11 05:05:30;;;;;;;6.70;3.70;;;;;;;14.44;100.00;101548.16;4932815;28;20070;-87
2022/07/11 05:07:59;;;;;;;5.78;3.33;;;;;;;14.47;100.00;101542.84;4927412;28;20051;-86
2022/07/11 05:10:36;;;;;;;4.05;3.28;;;;;;;14.54;100.00;101544.53;4922389;28;20074;-86
2022/07/11 05:13:05;;;;;;;4.10;2.90;;;;;;;14.65;100.00;101552.34;4945611;28;20046;-88
2022/07/11 05:15:39;;;;;;;7.13;3.28;;;;;;;14.75;100.00;101547.84;4928637;28;20070;-89
2022/07/11 05:18:09;;;;;;;4.50;3.60;;;;;;;14.80;100.00;101549.53;4936253;28;20051;-87
2022/07/11 05:20:36;;;;;;;3.15;2.80;;;;;;;14.89;100.00;101545.91;4960519;28;20043;-87
2022/07/11 05:23:02;;;;;;;4.22;2.70;;;;;;;15.00;100.00;101551.03;4930637;28;20679;-86
2022/07/11 05:25:36;;;;;;;5.72;4.03;;;;;;;15.08;100.00;101545.66;4948042;28;20043;-86
2022/07/11 05:28:02;;;;;;;3.85;3.20;;;;;;;15.11;100.00;101542.97;4921375;28;20394;-84
2022/07/11 05:30:32;;;;;;;5.65;3.00;;;;;;;15.11;100.00;101541.22;4942258;28;20116;-85
2022/07/11 05:32:59;;;;;;;8.45;4.25;;;;;;;15.18;100.00;101548.13;4939316;28;20071;-86
2022/07/11 05:35:26;;;;;;;4.35;2.97;;;;;;;15.26;100.00;101555.94;4948310;28;20400;-86
2022/07/11 05:37:53;;;;;;;4.43;2.40;;;;;;;15.36;100.00;101554.94;4923996;29;20067;-85
2022/07/11 05:40:23;;;;;;;7.03;2.63;;;;;;;15.47;99.27;101557.41;4925665;28;20058;-86
2022/07/11 05:42:50;;;;;;;7.93;2.83;;;;;;;15.54;97.68;101552.94;4940014;28;20055;-85
2022/07/11 05:45:18;;;;;;;2.45;2.22;;;;;;;15.55;96.93;101555.53;4940661;28;20047;-84
2022/07/11 05:47:45;;;;;;;2.45;1.98;;;;;;;15.56;97.16;101551.13;4937689;28;20047;-84
2022/07/11 05:50:12;;;;;;;4.30;1.95;;;;;;;15.64;96.66;101554.50;4931648;28;20110;-86
2022/07/11 05:52:39;;;;;;;3.22;1.85;;;;;;;15.75;95.05;101557.00;4914230;28;20341;-87
2022/07/11 05:55:07;;;;;;;1.95;1.83;;;;;;;15.77;95.10;101549.03;4937182;28;20107;-86
2022/07/11 05:57:37;;;;;;;2.53;1.55;;;;;;;15.74;94.54;101560.53;4938570;28;20054;-84
2022/07/11 06:00:07;;;;;;;3.42;1.52;;;;;;;15.73;94.06;101558.78;4916314;28;20506;-85
2022/07/11 06:02:34;;;;;;;14.18;2.33;;;;;;;15.71;93.36;101561.44;4933617;28;20050;-87
2022/07/11 06:05:03;;;;;;;2.25;1.17;;;;;;;15.69;93.24;101562.38;4927425;28;20039;-85
2022/07/11 06:10:14;;;;;;;2.60;1.27;;;;;;;15.82;92.03;101561.28;4919457;28;20027;-87
2022/07/11 06:12:44;;;;;;;1.45;0.90;;;;;;;15.97;91.66;101552.25;4935876;28;20047;-85
2022/07/11 06:15:14;;;;;;;2.13;1.40;;;;;;;16.18;90.76;101558.94;4957164;28;21372;-86
2022/07/11 06:17:42;;;;;;;0.93;0.93;;;;;;;16.46;89.31;101565.47;4921431;28;20055;-84
2022/07/11 06:20:13;;;;;;;1.67;0.80;;;;;;;16.69;86.70;101552.69;4931645;28;20532;-85
2022/07/11 06:22:40;;;;;;;1.20;1.08;;;;;;;16.94;85.09;101557.50;4934472;28;20070;-85
2022/07/11 06:25:09;;;;;;;2.28;1.13;;;;;;;17.08;84.13;101553.69;4916877;28;20131;-87
2022/07/11 06:27:40;;;;;;;1.60;0.60;;;;;;;17.25;82.22;101555.94;4922831;28;20054;-87
2022/07/11 06:30:07;;;;;;;1.05;0.63;;;;;;;17.40;79.11;101552.97;4943593;28;20379;-86
2022/07/11 06:32:39;;;;;;;1.75;0.43;;;;;;;17.50;77.34;101554.50;4939858;28;20078;-86
2022/07/11 06:35:09;;;;;;;3.00;0.95;;;;;;;17.57;76.57;101557.00;4941697;28;20051;-87
2022/07/11 06:37:41;;;;;;;1.23;0.35;;;;;;;17.59;75.10;101550.75;4927931;28;20039;-87
2022/07/11 06:40:11;;;;;;;3.13;1.05;;;;;;;17.61;73.25;101553.38;4946724;28;20047;-88
2022/07/11 06:42:41;;;;;;;1.20;0.20;;;;;;;17.65;74.14;101560.31;4939064;28;20127;-86
2022/07/11 06:45:11;;;;;;;1.65;0.75;;;;;;;17.76;73.61;101558.28;4928945;28;20054;-87
2022/07/11 06:47:38;;;;;;;1.95;0.52;;;;;;;17.87;72.54;101558.00;4938311;28;20050;-86
2022/07/11 06:50:12;;;;;;;0.57;0.57;;;;;;;17.90;73.65;101557.97;4938795;28;20075;-87
2022/07/11 06:52:46;;;;;;;0.80;0.40;;;;;;;17.99;72.06;101559.50;4938034;28;20066;-88
2022/07/11 06:55:13;;;;;;;1.30;0.95;;;;;;;17.97;71.52;101566.66;4923467;28;20049;-87
2022/07/11 06:57:40;;;;;;;4.55;1.52;;;;;;;17.97;71.34;101561.34;4960876;28;20047;-89
2022/07/11 07:00:08;;;;;;;2.17;0.60;;;;;;;17.90;71.13;101565.03;4942451;28;20047;-88
2022/07/11 07:02:45;;;;;;;1.77;0.93;;;;;;;17.90;70.59;101565.03;4930907;28;20051;-88
2022/07/11 07:05:12;;;;;;;0.70;0.70;;;;;;;17.95;70.43;101561.41;4943776;28;20058;-87
2022/07/11 07:07:42;;;;;;;0.98;0.90;;;;;;;18.10;69.93;101560.13;4945090;28;20058;-89
2022/07/11 07:10:12;;;;;;;0.57;0.57;;;;;;;18.27;69.02;101558.81;4946249;28;20336;-87
2022/07/11 07:12:40;;;;;;;0.75;0.75;;;;;;;18.37;67.97;101567.38;4944996;28;20043;-87
2022/07/11 07:15:20;;;;;;;1.90;0.70;;;;;;;18.44;67.37;101569.81;4947117;28;20071;-89
2022/07/11 07:17:47;;;;;;;0.63;0.50;;;;;;;18.50;66.97;101567.00;4936147;28;20055;-87
2022/07/11 07:20:17;;;;;;;3.42;0.60;;;;;;;18.59;66.60;101559.69;4932355;28;20047;-86
2022/07/11 07:22:43;;;;;;;0.65;0.50;;;;;;;18.61;66.32;101566.69;4930479;28;20047;-86
2022/07/11 07:25:10;;;;;;;0.77;0.30;;;;;;;18.59;65.93;101576.50;4944560;28;20049;-87
2022/07/11 07:27:41;;;;;;;0.90;0.50;;;;;;;18.48;65.94;101573.25;4947286;28;20111;-88
2022/07/11 07:30:11;;;;;;;0.55;0.55;;;;;;;18.43;65.67;101577.81;4954182;28;20051;-87
2022/07/11 07:32:38;;;;;;;2.08;0.90;;;;;;;18.34;66.05;101581.56;4933691;28;20128;-88
2022/07/11 07:35:06;;;;;;;0.82;0.60;;;;;;;18.23;66.18;101573.94;4934977;28;20077;-88
2022/07/11 07:37:48;;;;;;;1.23;0.30;;;;;;;18.10;65.47;101583.13;4949796;28;20043;-88
2022/07/11 07:40:15;;;;;;;0.52;0.35;;;;;;;18.01;65.99;101584.19;4948745;28;20090;-88
2022/07/11 07:42:43;;;;;;;0.30;0.20;;;;;;;18.01;66.23;101582.41;4942009;28;20179;-88
2022/07/11 07:45:11;;;;;;;1.00;0.45;;;;;;;18.04;65.94;101572.66;4934818;28;20047;-88
2022/07/11 07:47:38;;;;;;;0.95;0.52;;;;;;;18.04;66.10;101576.16;4928199;29;20054;-88
2022/07/11 07:50:07;;;;;;;0.40;0.40;;;;;;;18.06;66.21;101579.66;4927262;28;20047;-86
2022/07/11 07:52:37;;;;;;;0.95;0.40;;;;;;;18.10;65.77;101583.97;4922163;29;20231;-88
2022/07/11 07:55:09;;;;;;;0.73;0.38;;;;;;;17.99;66.30;101583.34;4921997;29;20047;-88
2022/07/11 07:57:43;;;;;;;0.77;0.40;;;;;;;17.78;67.25;101588.28;4934949;28;20087;-88
2022/07/11 08:02:58;;;;;;;2.42;0.85;;;;;;;17.56;69.66;101597.59;4940370;28;20067;-87
2022/07/11 08:05:45;;;;;;;0.32;0.32;;;;;;;17.69;69.79;101599.94;4937114;29;20392;-87
2022/07/11 08:08:21;;;;;;;2.65;0.60;;;;;;;17.99;69.38;101600.16;4936430;29;20122;-88
2022/07/11 08:10:47;;;;;;;0.68;0.30;;;;;;;18.29;68.27;101602.94;4939947;29;20898;-89
2022/07/11 08:13:14;;;;;;;0.40;0.30;;;;;;;18.43;67.38;101606.97;4942514;29;20036;-87
2022/07/11 08:15:48;;;;;;;2.58;0.70;;;;;;;18.43;67.23;101606.97;4945412;29;20177;-88
2022/07/11 08:18:14;;;;;;;0.90;0.45;;;;;;;18.30;67.88;101607.31;4940540;29;20040;-85
2022/07/11 08:20:44;;;;;;;1.08;0.52;;;;;;;18.48;67.86;101602.44;4939648;28;20119;-86
2022/07/11 08:23:14;;;;;;;1.15;0.40;;;;;;;18.70;66.58;101610.66;4916598;29;20071;-86
2022/07/11 08:25:45;;;;;;;3.15;0.57;;;;;;;18.66;66.53;101612.53;4932224;29;20087;-86
2022/07/11 08:28:13;;;;;;;0.73;0.20;;;;;;;18.60;65.99;101617.13;4935472;29;20055;-85
2022/07/11 08:30:40;;;;;;;0.80;0.30;;;;;;;18.41;66.63;101614.09;4934918;29;20035;-84
2022/07/11 08:33:07;;;;;;;0.73;0.22;;;;;;;18.29;66.68;101608.22;4934052;29;20044;-87
2022/07/11 08:35:35;;;;;;;0.52;0.32;;;;;;;18.22;67.08;101611.06;4936926;29;20135;-86
2022/07/11 08:38:03;;;;;;;0.40;0.40;;;;;;;18.19;66.72;101614.66;4916863;29;20138;-84
2022/07/11 08:40:36;;;;;;;3.55;0.40;;;;;;;18.21;66.78;101606.69;4922039;29;20056;-86
2022/07/11 08:43:15;;;;;;;2.63;0.25;;;;;;;18.18;66.63;101613.78;4934970;29;20118;-86
2022/07/11 08:45:43;;;;;;;1.58;0.50;;;;;;;18.11;67.13;101621.94;4918041;29;20040;-86
2022/07/11 08:48:16;;;;;;;1.67;0.73;;;;;;;18.10;67.31;101630.81;4938177;28;20054;-87
2022/07/11 08:50:43;;;;;;;;;;;;;;;18.21;67.09;101626.09;4932786;29;20051;-84
2022/07/11 08:53:14;;;;;;;2.33;0.60;;;;;;;18.43;66.81;101620.25;4934826;28;19931;-85
2022/07/11 08:55:43;;;;;;;1.35;0.22;;;;;;;18.68;65.57;101623.97;4913696;29;20059;-85
2022/07/11 08:58:11;;;;;;;1.35;0.85;;;;;;;18.96;64.91;101627.69;4935361;29;20039;-85
2022/07/11 09:00:44;;;;;;;0.93;0.35;;;;;;;19.15;64.59;101622.69;4924068;29;20198;-84
2022/07/11 09:03:17;;;;;;;1.38;0.28;;;;;;;19.44;63.74;101615.66;4918380;29;20055;-84
2022/07/11 09:05:45;;;;;;;0.30;0.20;;;;;;;19.82;62.51;101616.25;4934666;29;20047;-85
2022/07/11 09:08:12;;;;;;;1.85;0.30;;;;;;;20.14;61.33;101612.53;4915870;29;20038;-86
2022/07/11 09:10:43;;;;;;;1.95;0.55;;;;;;;20.34;60.81;101616.31;4937574;28;20074;-86
2022/07/11 09:13:16;;;;;;;0.30;0.22;;;;;;;20.35;60.17;101609.19;4926210;29;20055;-85
2022/07/11 09:15:47;;;;;;;1.55;0.30;;;;;;;20.36;60.48;101614.44;4920570;29;20055;-85
2022/07/11 09:18:30;;;;;;;0.45;0.30;;;;;;;20.70;59.48;101615.94;4922543;29;20078;-84
2022/07/11 09:27:24;;;;;;;1.85;0.50;;;;;;;23.74;51.56;101602.28;4937807;28;20040;-85
2022/07/11 09:30:06;;;;;;;1.08;0.10;;;;;;;24.96;48.12;101595.16;4923867;29;20137;-85
2022/07/11 09:33:01;;;;;;;0.73;0.20;;;;;;;25.00;45.91;101594.03;4935468;29;20158;-86
2022/07/11 09:35:42;;;;;;;1.38;0.20;;;;;;;24.29;48.21;101595.09;4935022;28;20055;-87
2022/07/11 09:38:29;;;;;;;0.40;0.20;;;;;;;23.76;49.88;101603.03;4950689;28;20055;-85
2022/07/11 09:41:17;;;;;;;0.25;0.20;;;;;;;23.53;49.79;101597.97;4935934;28;20054;-86
2022/07/11 09:43:51;;;;;;;0.65;0.50;;;;;;;23.28;49.70;101593.81;4918624;29;20106;-87
2022/07/11 09:46:25;;;;;;;1.08;0.20;;;;;;;22.82;51.04;101602.13;4919965;29;20047;-85
2022/07/11 09:49:04;;;;;;;0.52;0.32;;;;;;;22.43;51.97;101603.81;4933638;29;20479;-86
2022/07/11 09:51:37;;;;;;;0.55;0.17;;;;;;;21.98;53.65;101603.03;4916610;28;20114;-86
2022/07/11 09:54:17;;;;;;;2.20;0.05;;;;;;;21.47;55.12;101594.41;4936912;28;20047;-85
2022/07/11 09:56:51;;;;;;;1.65;0.35;;;;;;;20.81;57.12;101587.16;4935033;28;20070;-88
2022/07/11 09:59:22;;;;;;;0.82;0.63;;;;;;;20.55;58.33;101598.72;4940087;28;20150;-87
2022/07/11 10:01:53;;;;;;;0.40;0.28;;;;;;;20.78;57.88;101592.59;4924831;28;20054;-87
2022/07/11 10:04:22;;;;;;;0.40;0.10;;;;;;;22.14;54.71;101594.38;4937391;28;20306;-86
2022/07/11 10:06:49;;;;;;;1.10;0.20;;;;;;;23.94;49.30;101595.94;4935245;28;20054;-85
2022/07/11 10:09:16;;;;;;;1.55;0.20;;;;;;;24.40;47.15;101589.19;4933510;28;20347;-85
2022/07/11 10:11:43;;;;;;;1.27;0.77;;;;;;;23.43;49.16;101595.75;4915759;28;20138;-85
2022/07/11 10:14:10;;;;;;;0.25;0.25;;;;;;;23.19;50.58;101599.59;4936581;28;20112;-85
2022/07/11 10:17:09;;;;;;;0.75;0.20;;;;;;;23.84;49.17;101594.63;4935960;28;20057;-87
2022/07/11 10:19:58;;;;;;;0.47;0.30;;;;;;;24.99;46.53;101596.78;4934724;28;20074;-85
2022/07/11 10:22:36;;;;;;;0.98;0.55;;;;;;;24.67;46.89;101607.44;4935631;28;20059;-86
2022/07/11 10:25:46;;;;;;;1.38;0.35;;;;;;;24.00;47.83;101604.59;4934500;28;20077;-87
2022/07/11 10:28:28;;;;;;;1.27;0.30;;;;;;;23.59;49.68;101601.19;4937317;28;20058;-87
2022/07/11 10:30:59;;;;;;;0.30;0.28;;;;;;;24.21;48.82;101595.50;4937556;28;20062;-86
2022/07/11 10:33:28;;;;;;;1.27;0.45;;;;;;;24.79;47.01;101592.53;4937145;28;20743;-86
2022/07/11 10:35:56;;;;;;;0.20;0.13;;;;;;;24.89;47.04;101591.94;4950116;28;20039;-86
2022/07/11 10:38:24;;;;;;;1.40;0.93;;;;;;;24.66;47.53;101592.31;4936448;28;20121;-86
2022/07/11 10:40:55;;;;;;;0.40;0.38;;;;;;;24.43;48.04;101597.91;4934679;28;20126;-84
2022/07/11 10:43:31;;;;;;;0.40;0.40;;;;;;;24.23;48.13;101601.63;4930226;28;20047;-87
2022/07/11 10:46:19;;;;;;;0.95;0.20;;;;;;;24.39;47.66;101603.50;4945488;28;20055;-89
2022/07/11 10:49:02;;;;;;;0.10;0.10;;;;;;;25.86;45.07;101588.31;4942514;28;20067;-86
2022/07/11 10:51:45;;;;;;;0.35;0.25;;;;;;;26.09;43.99;101581.59;4914467;28;20055;-85
2022/07/11 10:54:30;;;;;;;0.20;0.20;;;;;;;25.12;45.11;101588.94;4935240;28;21117;-86
2022/07/11 10:57:22;;;;;;;0.10;0.10;;;;;;;24.02;48.14;101592.03;4932115;28;20043;-85
2022/07/11 11:00:13;;;;;;;0.43;0.40;;;;;;;23.23;49.72;101598.50;4951589;28;20066;-86
2022/07/11 11:03:08;;;;;;;1.80;0.20;;;;;;;22.51;52.40;101605.28;4937333;28;20070;-86
2022/07/11 11:06:03;;;;;;;;;;;;;;;;;;;;;
2022/07/11 11:08:35;;;;;;;0.73;0.30;;;;;;;21.57;55.44;101605.59;4938738;28;20134;-85
2022/07/11 11:11:38;;;;;;;;;;;;;;;;;;;;;
2022/07/11 11:14:31;;;;;;;0.20;0.20;;;;;;;21.72;55.42;101600.56;4926772;28;20051;-85
2022/07/11 11:17:41;;;;;;;0.20;0.17;;;;;;;21.61;55.84;101607.19;4930147;28;20051;-85
2022/07/11 11:20:44;;;;;;;;;;;;;;;;;;;;;
2022/07/11 11:23:27;;;;;;;0.77;0.10;;;;;;;21.06;57.56;101612.00;4936072;28;20632;-84
2022/07/11 11:25:57;;;;;;;0.85;0.20;;;;;;;20.95;58.09;101615.03;4930178;28;20054;-85
2022/07/11 11:28:32;;;;;;;1.17;0.10;;;;;;;20.95;58.09;101615.94;4934785;28;20047;-86
2022/07/11 11:31:06;;;;;;;0.32;0.20;;;;;;;20.92;58.11;101616.03;4921457;28;20534;-86
2022/07/11 11:33:39;;;;;;;0.20;0.10;;;;;;;21.06;57.83;101610.19;4932476;28;20039;-85
2022/07/11 11:36:09;;;;;;;0.20;0.10;;;;;;;21.36;57.40;101611.75;4914785;28;20114;-85
2022/07/11 11:38:42;;;;;;;1.00;0.40;;;;;;;21.72;56.55;101608.56;4931972;28;20039;-86
2022/07/11 11:41:16;;;;;;;2.10;0.17;;;;;;;21.96;55.99;101612.03;4932570;28;20051;-85
2022/07/11 11:43:55;;;;;;;0.10;0.10;;;;;;;22.09;55.15;101615.06;4932419;28;20593;-86
2022/07/11 11:46:42;;;;;;;1.38;0.28;;;;;;;21.95;55.07;101621.84;4938119;28;20055;-86
2022/07/11 11:49:09;;;;;;;1.88;0.45;;;;;;;22.00;55.30;101626.97;4922558;28;20101;-85
2022/07/11 11:51:37;;;;;;;0.10;0.10;;;;;;;22.13;55.09;101622.84;4925857;28;20047;-85
2022/07/11 11:54:17;;;;;;;;;;;;;;;;;;;;;
2022/07/11 11:56:46;;;;;;;1.05;0.10;;;;;;;22.55;54.42;101618.41;4923172;28;20082;-86
2022/07/11 11:59:19;;;;;;;0.10;0.10;;;;;;;23.07;53.36;101620.53;4925907;28;20494;-86